M I D A S
Marine Information and Data Acquisition System
Tripno 443 of the Zeeleeuw from 2003-03-05 10:22:25 to 2003-03-05 15:07:28
Back to CruiseResearch ActivitiesStationsMapUnderway DataData graphs

EquipmentUnitsComment
TimeDGPSUTC
LatitudeDGPSDM.mWGS84
LongitudeDGPSDM.mWGS84
HeadingGyrodeg 
SOGDGPSknotsSpeed over ground
COGDGPSdegCourse over ground
DepthEcho soundermeters200 kHz
Missing or incorrect values are displayed as -999
Navigation data collected by the RV Zeeleeuw from 2003-03-05 10:22:25 to 2003-03-05 15:07:28
                                                                                    Next 1000 lines
Time Latitude Longitude Heading SOG COG Depth
2003-03-05 10:22:33 51°13.696 2°55.758 64.4 0.9 30.7 10.2
2003-03-05 10:22:38 51°13.697 2°55.759 59.8 1 32.3 10
2003-03-05 10:22:43 51°13.698 2°55.76 56.5 1 29.5 10.1
2003-03-05 10:22:48 51°13.699 2°55.761 53.7 0.8 23.6 10
2003-03-05 10:22:53 51°13.7 2°55.761 50.7 0.6 5.6 9.9
2003-03-05 10:22:56 51°13.7 2°55.76 47.9 0.4 332.3 10
2003-03-05 10:23:03 51°13.7 2°55.758 45.7 0.5 275.4 9.8
2003-03-05 10:23:08 51°13.7 2°55.757 43.7 0.8 251.1 9.9
2003-03-05 10:23:13 51°13.699 2°55.755 41.9 1 242.8 10.1
2003-03-05 10:23:18 51°13.698 2°55.752 40.2 1.2 235.5 10.2
2003-03-05 10:23:21 51°13.697 2°55.751 38.4 1.4 231.6 -999
2003-03-05 10:23:29 51°13.695 2°55.747 36.5 1.5 227.4 -999
2003-03-05 10:23:34 51°13.694 2°55.744 34.8 1.5 226.1 -999
2003-03-05 10:23:39 51°13.692 2°55.742 33.7 1.5 223.4 -999
2003-03-05 10:23:44 51°13.691 2°55.74 32.8 1.4 222.7 -999
2003-03-05 10:23:49 51°13.689 2°55.739 31.7 1.2 222.7 -999
2003-03-05 10:23:53 51°13.689 2°55.737 30 1 225.6 -999
2003-03-05 10:23:59 51°13.689 2°55.737 27.4 0.6 232.6 -999
2003-03-05 10:24:03 51°13.689 2°55.736 24.1 0.3 260.4 -999
2003-03-05 10:24:09 51°13.689 2°55.736 20.3 0.3 326.5 -999
2003-03-05 10:24:14 51°13.69 2°55.736 16.1 0.5 350.2 -999
2003-03-05 10:24:19 51°13.692 2°55.736 11.6 0.8 355.4 -999
2003-03-05 10:24:24 51°13.693 2°55.735 6.8 1 355.6 -999
2003-03-05 10:24:29 51°13.695 2°55.735 2.8 1.3 353.7 4.7
2003-03-05 10:24:33 51°13.697 2°55.734 357.4 1.5 351 -999
2003-03-05 10:24:39 51°13.701 2°55.733 352.3 1.8 345.2 -999
2003-03-05 10:24:42 51°13.702 2°55.732 347.3 2.1 341.9 4.9
2003-03-05 10:24:48 51°13.706 2°55.729 344.5 2.3 338.8 10.8
2003-03-05 10:24:52 51°13.709 2°55.727 342.4 2.6 335.8 10.7
2003-03-05 10:24:58 51°13.713 2°55.724 340.6 3 334.2 10
2003-03-05 10:25:03 51°13.718 2°55.72 340.1 3.2 333.8 9.9
2003-03-05 10:25:08 51°13.723 2°55.716 340.1 3.8 334.3 9.7
2003-03-05 10:25:13 51°13.728 2°55.712 339.6 4.1 334.3 9.4
2003-03-05 10:25:17 51°13.733 2°55.709 338.7 4.4 334.2 9.1
2003-03-05 10:25:20 51°13.736 2°55.706 338 4.7 333.5 9.2
2003-03-05 10:25:25 51°13.743 2°55.7 337.4 4.9 333.1 9.2
2003-03-05 10:25:33 51°13.756 2°55.688 336.8 5.3 332.5 9.2
2003-03-05 10:25:35 51°13.759 2°55.685 336.6 5.6 332.3 9.2
2003-03-05 10:25:43 51°13.77 2°55.675 336.6 5.7 332.2 9.4
2003-03-05 10:25:48 51°13.777 2°55.67 336.7 6 332.5 9.3
2003-03-05 10:25:53 51°13.785 2°55.664 336.7 6.2 332.5 9.3
2003-03-05 10:25:57 51°13.791 2°55.659 336.8 6.4 332.7 9.3
2003-03-05 10:26:01 51°13.797 2°55.654 337 6.6 332.9 9.3
2003-03-05 10:26:08 51°13.808 2°55.646 337.4 6.6 333.1 9.4
2003-03-05 10:26:13 51°13.816 2°55.64 337.8 6.8 333.2 9.4
2003-03-05 10:26:16 51°13.821 2°55.636 337.9 6.9 333.5 9.4
2003-03-05 10:26:23 51°13.833 2°55.626 338.1 7 333.5 9.4
2003-03-05 10:26:28 51°13.843 2°55.62 338.9 7.1 334.1 9.3
2003-03-05 10:26:33 51°13.852 2°55.613 339.4 7.2 334.8 9.1
2003-03-05 10:26:37 51°13.859 2°55.608 339.6 7.2 335.2 9
2003-03-05 10:26:43 51°13.87 2°55.6 340.1 7.3 335.4 9
2003-03-05 10:26:48 51°13.879 2°55.593 340.2 7.4 336.1 9
2003-03-05 10:26:53 51°13.889 2°55.586 339.8 7.4 335.7 9
2003-03-05 10:26:57 51°13.896 2°55.581 339.7 7.4 335.5 9
2003-03-05 10:27:03 51°13.908 2°55.572 339.6 7.5 335.5 9
2003-03-05 10:27:08 51°13.917 2°55.566 339.5 7.5 335 9
2003-03-05 10:27:13 51°13.927 2°55.558 339.7 7.6 335.4 9.1
2003-03-05 10:27:17 51°13.935 2°55.552 339.6 7.7 335.2 9.1
2003-03-05 10:27:23 51°13.947 2°55.543 339.6 7.8 335.6 9.1
2003-03-05 10:27:28 51°13.957 2°55.536 340 8 335.8 9
2003-03-05 10:27:33 51°13.968 2°55.529 340.6 8.1 336.5 9
2003-03-05 10:27:37 51°13.976 2°55.524 341 8.2 336.7 9.2
2003-03-05 10:27:41 51°13.984 2°55.518 340.8 8.3 336.9 9.2
2003-03-05 10:27:48 51°13.999 2°55.507 340.3 8.3 336.7 9.2
2003-03-05 10:27:53 51°14.01 2°55.5 340.3 8.4 336.3 9.2
2003-03-05 10:27:58 51°14.02 2°55.493 340.1 8.4 335.9 9.1
2003-03-05 10:28:03 51°14.031 2°55.485 339.3 8.4 335.6 9.1
2003-03-05 10:28:08 51°14.041 2°55.477 338.7 8.5 334.5 9
2003-03-05 10:28:13 51°14.052 2°55.469 338.8 8.5 334.2 8.9
2003-03-05 10:28:16 51°14.058 2°55.464 339 8.5 334.3 8.7
2003-03-05 10:28:23 51°14.073 2°55.452 338.9 8.6 334.3 8.8
2003-03-05 10:28:28 51°14.084 2°55.443 338.5 8.7 333.9 9
2003-03-05 10:28:33 51°14.095 2°55.435 338.4 8.8 333.5 9.1
2003-03-05 10:28:37 51°14.104 2°55.428 338.6 8.8 333.5 9.1
2003-03-05 10:28:42 51°14.115 2°55.419 338.2 8.9 333.4 9.1
2003-03-05 10:28:48 51°14.128 2°55.408 337.3 8.9 332.8 9.2
2003-03-05 10:28:53 51°14.139 2°55.399 336.9 8.9 332 9.2
2003-03-05 10:28:55 51°14.144 2°55.395 336.1 8.9 331.7 9.2
2003-03-05 10:29:04 51°14.163 2°55.377 334.8 8.9 330.6 9.4
2003-03-05 10:29:09 51°14.174 2°55.367 334.1 9 329.4 9.2
2003-03-05 10:29:13 51°14.182 2°55.358 332.7 9 328.5 9.5
2003-03-05 10:29:17 51°14.19 2°55.35 330.9 9 326.7 9.9
2003-03-05 10:29:24 51°14.205 2°55.334 329.5 9 325 9.8
2003-03-05 10:29:29 51°14.215 2°55.322 328.2 9 323.7 9.3
2003-03-05 10:29:33 51°14.223 2°55.312 326.6 9 322.3 9.3
2003-03-05 10:29:43 51°14.241 2°55.286 322.7 9 319.2 9.3
2003-03-05 10:29:49 51°14.252 2°55.27 321 9 317.2 9.4
2003-03-05 10:29:53 51°14.259 2°55.259 319.6 9 316.3 9.4
2003-03-05 10:30:03 51°14.277 2°55.23 317.1 9 313.6 9.4
2003-03-05 10:30:08 51°14.286 2°55.215 315.8 9 312 9.4
2003-03-05 10:30:13 51°14.294 2°55.2 315.3 9 311 9.4
2003-03-05 10:30:19 51°14.304 2°55.181 315.2 9 310.3 9.5
2003-03-05 10:30:21 51°14.307 2°55.175 314.3 9 309.9 9.5
2003-03-05 10:30:29 51°14.319 2°55.151 313.5 9 309 9.6
2003-03-05 10:30:33 51°14.325 2°55.138 313 9 308.8 9.7
2003-03-05 10:30:39 51°14.335 2°55.119 312.8 9.2 308.3 9.2
2003-03-05 10:30:43 51°14.341 2°55.106 312.6 9.3 308.1 9.2
2003-03-05 10:30:49 51°14.351 2°55.085 312.5 9.6 307.6 9.5
2003-03-05 10:30:53 51°14.357 2°55.071 312 9.9 307.1 9.7
2003-03-05 10:30:56 51°14.362 2°55.06 310.3 10 305.4 9.8
2003-03-05 10:31:04 51°14.374 2°55.03 308 10.2 302.6 15.4
2003-03-05 10:31:09 51°14.381 2°55.009 304.5 10.4 299.4 15.4
2003-03-05 10:31:12 51°14.384 2°54.996 301.8 10.5 296.6 15.8
2003-03-05 10:31:24 51°14.397 2°54.944 296.7 10.7 291.2 16.2
2003-03-05 10:31:29 51°14.402 2°54.92 293.9 10.8 288.5 16
2003-03-05 10:31:33 51°14.405 2°54.902 290.1 10.9 285.6 16.3
2003-03-05 10:31:37 51°14.407 2°54.882 286.5 11 282.2 16
2003-03-05 10:31:44 51°14.41 2°54.848 283 11.1 278.8 15.7
2003-03-05 10:31:49 51°14.411 2°54.824 279.5 11.1 275.5 16.2
2003-03-05 10:31:53 51°14.411 2°54.804 276.7 11.2 272.7 15.9
2003-03-05 10:31:59 51°14.41 2°54.774 272.4 11.2 268.7 15.9
2003-03-05 10:32:04 51°14.408 2°54.749 269.8 11.3 265.5 15.8
2003-03-05 10:32:09 51°14.406 2°54.724 266.8 11.4 262.5 16
2003-03-05 10:32:13 51°14.403 2°54.704 263.3 11.6 259.6 16.1
2003-03-05 10:32:19 51°14.398 2°54.673 261 11.8 257.1 17.9
2003-03-05 10:32:24 51°14.394 2°54.647 257.8 12 254.9 16.1
2003-03-05 10:32:29 51°14.388 2°54.622 255.4 12.1 252.9 16.1
2003-03-05 10:32:33 51°14.384 2°54.602 253.7 12.3 250.5 16
2003-03-05 10:32:39 51°14.376 2°54.571 251.4 12.4 248.7 14.6
2003-03-05 10:32:44 51°14.368 2°54.546 250.1 12.4 247.1 14
2003-03-05 10:32:49 51°14.361 2°54.521 248.9 12.5 246 13.8
2003-03-05 10:32:53 51°14.355 2°54.501 248.5 12.5 245.1 13.7
2003-03-05 10:32:59 51°14.346 2°54.471 248.5 12.5 244.8 15.2
2003-03-05 10:33:01 51°14.343 2°54.461 248.4 12.6 244.7 13.5
2003-03-05 10:33:09 51°14.331 2°54.42 247.8 12.6 244.4 13.3
2003-03-05 10:33:13 51°14.325 2°54.4 247.3 12.7 244 13.4
2003-03-05 10:33:19 51°14.316 2°54.37 247.2 12.7 243.7 13.3
2003-03-05 10:33:24 51°14.308 2°54.345 247.2 12.7 243.6 13.2
2003-03-05 10:33:29 51°14.301 2°54.32 247.2 12.8 243.8 13.2
2003-03-05 10:33:33 51°14.294 2°54.299 247.5 12.8 243.9 13.3
2003-03-05 10:33:37 51°14.287 2°54.279 247.6 12.8 244.2 13.1
2003-03-05 10:33:44 51°14.276 2°54.243 247.7 12.8 244.1 13.1
2003-03-05 10:33:49 51°14.268 2°54.217 247.5 12.8 244.1 13.1
2003-03-05 10:33:52 51°14.263 2°54.202 247.5 12.8 243.9 12.9
2003-03-05 10:34:03 51°14.246 2°54.146 247.5 12.8 243.9 13
2003-03-05 10:34:07 51°14.24 2°54.126 247.8 12.8 244.3 13
2003-03-05 10:34:12 51°14.232 2°54.1 247.8 12.8 244.4 12.9
2003-03-05 10:34:17 51°14.225 2°54.074 247.7 12.8 244.4 13
2003-03-05 10:34:21 51°14.219 2°54.054 247.5 12.9 244.1 12.8
2003-03-05 10:34:33 51°14.2 2°53.993 247.5 12.9 244 12.8
2003-03-05 10:34:37 51°14.193 2°53.972 247.5 12.8 244 12.8
2003-03-05 10:34:41 51°14.187 2°53.952 247.5 12.9 244.1 12.7
2003-03-05 10:34:46 51°14.18 2°53.926 247.6 12.9 244.3 12.8
2003-03-05 10:34:53 51°14.169 2°53.89 247.6 12.9 244.3 12.8
2003-03-05 10:34:58 51°14.161 2°53.865 247.6 12.9 244.2 12.9
2003-03-05 10:35:03 51°14.153 2°53.839 247.6 12.9 244.2 12.8
2003-03-05 10:35:08 51°14.145 2°53.813 247.4 12.9 243.9 12.8
2003-03-05 10:35:13 51°14.138 2°53.788 247.3 12.9 244 12.9
2003-03-05 10:35:17 51°14.132 2°53.767 247.5 12.9 244.1 13
2003-03-05 10:35:20 51°14.127 2°53.752 247.6 12.9 244.3 13.1
2003-03-05 10:35:25 51°14.119 2°53.726 247.8 12.9 244.5 13.1
2003-03-05 10:35:33 51°14.107 2°53.684 248 12.9 244.7 13.2
2003-03-05 10:35:37 51°14.101 2°53.664 248.1 12.9 244.8 13.3
2003-03-05 10:35:41 51°14.094 2°53.643 248.1 12.9 244.8 13.2
2003-03-05 10:35:48 51°14.083 2°53.607 247.7 12.9 244.4 13.1
2003-03-05 10:35:52 51°14.077 2°53.586 247.4 12.9 244.1 13.2
2003-03-05 10:35:55 51°14.073 2°53.571 247.1 12.9 243.9 13.2
2003-03-05 10:36:03 51°14.06 2°53.53 247.1 12.9 243.8 13.2
2003-03-05 10:36:08 51°14.052 2°53.505 247.1 12.9 243.9 13.3
2003-03-05 10:36:13 51°14.044 2°53.479 247.4 13 244.1 13.3
2003-03-05 10:36:17 51°14.038 2°53.458 247.7 13 244.2 13.4
2003-03-05 10:36:23 51°14.028 2°53.426 248 13.2 244.6 13.4
2003-03-05 10:36:28 51°14.021 2°53.399 248.2 13.4 244.7 13.4
2003-03-05 10:36:33 51°14.012 2°53.372 248.2 13.5 244.7 13.5
2003-03-05 10:36:35 51°14.009 2°53.361 248.1 13.6 244.7 13.5
2003-03-05 10:36:43 51°13.996 2°53.317 248 13.8 244.4 13.6
2003-03-05 10:36:48 51°13.988 2°53.289 247.7 13.9 244.4 13.7
2003-03-05 10:36:53 51°13.979 2°53.262 246.7 14 243.5 13.7
2003-03-05 10:36:58 51°13.97 2°53.234 246.2 14.1 242.9 13.7
2003-03-05 10:37:02 51°13.962 2°53.212 245.5 14.2 242.5 13.8
2003-03-05 10:37:05 51°13.957 2°53.196 245.1 14.2 241.9 13.9
2003-03-05 10:37:13 51°13.942 2°53.151 244.9 14.3 241.7 13.9
2003-03-05 10:37:17 51°13.934 2°53.129 245 14.3 241.7 14.1
2003-03-05 10:37:23 51°13.923 2°53.096 245.3 14.4 241.9 14.2
2003-03-05 10:37:28 51°13.914 2°53.067 245.1 14.4 242 14.2
2003-03-05 10:37:33 51°13.904 2°53.04 244.7 14.4 241.7 14.3
2003-03-05 10:37:37 51°13.897 2°53.017 245.1 14.5 241.8 14.3
2003-03-05 10:37:43 51°13.885 2°52.984 244.7 14.5 241.6 14.4
2003-03-05 10:37:48 51°13.875 2°52.955 244.9 14.5 241.5 14.6
2003-03-05 10:37:53 51°13.866 2°52.927 245 14.6 241.4 14.6
2003-03-05 10:37:57 51°13.858 2°52.905 245.1 14.6 241.6 14.8
2003-03-05 10:38:00 51°13.852 2°52.888 245.3 14.6 241.8 14.8
2003-03-05 10:38:09 51°13.835 2°52.836 245.3 14.6 241.8 14.9
2003-03-05 10:38:15 51°13.824 2°52.802 245.1 14.6 241.8 14.9
2003-03-05 10:38:18 51°13.818 2°52.785 245.1 14.6 241.8 15
2003-03-05 10:38:25 51°13.804 2°52.746 245.1 14.6 241.7 14.9
2003-03-05 10:38:29 51°13.797 2°52.723 245 14.6 241.7 15.1
2003-03-05 10:38:33 51°13.789 2°52.7 245.3 14.6 241.8 15.1
2003-03-05 10:38:39 51°13.778 2°52.666 245.1 14.6 241.8 15.1
2003-03-05 10:38:45 51°13.766 2°52.632 245 14.6 241.7 15.1
2003-03-05 10:38:50 51°13.756 2°52.604 245.1 14.7 241.7 15.1
2003-03-05 10:38:53 51°13.75 2°52.587 245.2 14.6 241.7 15.1
2003-03-05 10:38:59 51°13.739 2°52.552 245.1 14.6 241.7 15
2003-03-05 10:39:05 51°13.727 2°52.518 244.9 14.6 241.4 14.9
2003-03-05 10:39:08 51°13.722 2°52.501 245.3 14.6 241.7 15.1
2003-03-05 10:39:15 51°13.708 2°52.461 245.4 14.6 241.7 15.4
2003-03-05 10:39:19 51°13.701 2°52.439 245.4 14.7 241.8 15.3
2003-03-05 10:39:25 51°13.689 2°52.404 245.3 14.7 241.7 15.4
2003-03-05 10:39:29 51°13.682 2°52.382 245.2 14.7 241.7 15.6
2003-03-05 10:39:35 51°13.67 2°52.347 245.1 14.7 241.6 15.5
2003-03-05 10:39:39 51°13.662 2°52.324 245.3 14.7 241.8 15.7
2003-03-05 10:39:45 51°13.651 2°52.29 245.5 14.7 242 15.6
2003-03-05 10:39:49 51°13.643 2°52.267 245.3 14.7 242 15.6
2003-03-05 10:39:55 51°13.632 2°52.233 244.9 14.7 241.8 15.9
2003-03-05 10:39:59 51°13.624 2°52.21 245.1 14.7 241.8 15.8
2003-03-05 10:40:05 51°13.613 2°52.175 245.3 14.7 242.1 15.8
2003-03-05 10:40:08 51°13.607 2°52.158 245.5 14.7 242 15.8
2003-03-05 10:40:15 51°13.593 2°52.118 245.3 14.7 242 15.8
2003-03-05 10:40:17 51°13.59 2°52.107 245.2 14.7 241.8 15.8
2003-03-05 10:40:25 51°13.574 2°52.061 245.1 14.7 241.7 15.8
2003-03-05 10:40:29 51°13.566 2°52.038 245 14.7 241.7 15.8
2003-03-05 10:40:33 51°13.558 2°52.015 245.3 14.7 241.8 15.9
2003-03-05 10:40:40 51°13.545 2°51.975 245.3 14.7 242 16
2003-03-05 10:40:45 51°13.535 2°51.946 245.3 14.7 242 16.1
2003-03-05 10:40:50 51°13.526 2°51.917 244.9 14.7 241.8 16
2003-03-05 10:40:53 51°13.52 2°51.9 245 14.8 241.7 17.9
2003-03-05 10:41:05 51°13.497 2°51.831 245.1 14.8 241.7 16.1
2003-03-05 10:41:09 51°13.489 2°51.808 245.1 14.8 241.8 18
2003-03-05 10:41:13 51°13.482 2°51.785 245.2 14.7 242 16
2003-03-05 10:41:20 51°13.468 2°51.745 245.3 14.7 242 16.1
2003-03-05 10:41:25 51°13.459 2°51.716 245.3 14.7 242.1 16.1
2003-03-05 10:41:30 51°13.449 2°51.687 245.3 14.7 242.2 18.1
2003-03-05 10:41:35 51°13.44 2°51.659 245.4 14.7 242.2 16
2003-03-05 10:41:40 51°13.43 2°51.63 245.5 14.7 242.2 16
2003-03-05 10:41:45 51°13.42 2°51.601 245.1 14.7 241.9 16
2003-03-05 10:41:49 51°13.413 2°51.578 245.3 14.7 242.1 17.9
2003-03-05 10:41:53 51°13.405 2°51.555 245.3 14.7 242.1 17.9
2003-03-05 10:42:00 51°13.392 2°51.515 245.3 14.7 242.2 16
2003-03-05 10:42:05 51°13.382 2°51.486 245.4 14.8 242.1 16
2003-03-05 10:42:10 51°13.373 2°51.457 245.5 14.8 242.2 16.2
2003-03-05 10:42:15 51°13.364 2°51.428 245.5 14.8 242.4 18.4
2003-03-05 10:42:17 51°13.36 2°51.416 245.7 14.8 242.4 16.2
2003-03-05 10:42:25 51°13.345 2°51.37 245.6 14.8 242.5 16.2
2003-03-05 10:42:29 51°13.337 2°51.347 245.2 14.8 242.1 16.3
2003-03-05 10:42:35 51°13.326 2°51.312 245.3 14.8 242.3 16.3
2003-03-05 10:42:40 51°13.316 2°51.283 245.2 14.8 242 16.2
2003-03-05 10:42:45 51°13.306 2°51.255 245 14.8 242 17.5
2003-03-05 10:42:50 51°13.297 2°51.226 245.2 14.8 241.9 16.3
2003-03-05 10:42:53 51°13.291 2°51.209 245.3 14.8 242.2 16.4
2003-03-05 10:43:04 51°13.27 2°51.145 245.3 14.8 242.2 16.5
2003-03-05 10:43:09 51°13.261 2°51.116 245.1 14.8 242.1 16.6
2003-03-05 10:43:13 51°13.254 2°51.093 245 14.8 241.9 16.6
2003-03-05 10:43:19 51°13.242 2°51.059 245 14.8 241.8 16.6
2003-03-05 10:43:23 51°13.234 2°51.036 245.2 14.8 241.9 16.6
2003-03-05 10:43:29 51°13.222 2°51.001 244.5 14.8 241.7 16.7
2003-03-05 10:43:34 51°13.212 2°50.972 243.8 14.8 241 16.7
2003-03-05 10:43:39 51°13.201 2°50.944 243.4 14.8 240.6 16.7
2003-03-05 10:43:44 51°13.191 2°50.916 243.1 14.8 240.4 16.8
2003-03-05 10:43:49 51°13.181 2°50.887 243.1 14.8 240.2 16.7
2003-03-05 10:43:53 51°13.173 2°50.864 243.1 14.8 240.5 16.8
2003-03-05 10:43:56 51°13.167 2°50.847 243.2 14.8 240.4 16.9
2003-03-05 10:44:04 51°13.151 2°50.802 243.1 14.8 240.4 17
2003-03-05 10:44:09 51°13.141 2°50.774 243.1 14.8 240.3 16.9
2003-03-05 10:44:14 51°13.13 2°50.745 243.1 14.8 240.2 17
2003-03-05 10:44:17 51°13.124 2°50.728 243.3 14.8 240.4 17.1
2003-03-05 10:44:24 51°13.11 2°50.688 243.3 14.8 240.4 17.1
2003-03-05 10:44:28 51°13.102 2°50.666 243.4 14.8 240.6 17.2
2003-03-05 10:44:33 51°13.092 2°50.637 243.4 14.8 240.5 17.1
2003-03-05 10:44:43 51°13.072 2°50.58 243.4 14.8 240.6 17.2
2003-03-05 10:44:49 51°13.06 2°50.546 243.4 14.8 240.4 17.1
2003-03-05 10:44:53 51°13.052 2°50.524 243.3 14.7 240.4 17.1
2003-03-05 10:44:57 51°13.043 2°50.501 243.1 14.7 240.4 17.2
2003-03-05 10:45:01 51°13.035 2°50.478 243.1 14.7 240.2 17.2
2003-03-05 10:45:08 51°13.021 2°50.439 243 14.7 240.2 17.1
2003-03-05 10:45:14 51°13.008 2°50.405 242.9 14.7 240 17.2
2003-03-05 10:45:19 51°12.998 2°50.376 243.2 14.7 240.3 17.2
2003-03-05 10:45:24 51°12.988 2°50.348 243.2 14.7 240.4 19
2003-03-05 10:45:29 51°12.978 2°50.32 243.6 14.7 240.6 17.3
2003-03-05 10:45:34 51°12.968 2°50.291 243.6 14.7 240.7 17.4
2003-03-05 10:45:38 51°12.96 2°50.268 243.7 14.7 240.9 17.3
2003-03-05 10:45:43 51°12.95 2°50.24 243.7 14.7 240.8 17.5
2003-03-05 10:45:49 51°12.938 2°50.206 243.4 14.7 240.7 17.5
2003-03-05 10:45:53 51°12.93 2°50.184 243.2 14.7 240.5 17.4
2003-03-05 10:45:59 51°12.919 2°50.15 243.1 14.7 240.3 17.4
2003-03-05 10:46:04 51°12.909 2°50.122 243 14.7 240.2 17.5
2003-03-05 10:46:09 51°12.899 2°50.094 243 14.7 240.2 17.5
2003-03-05 10:46:12 51°12.892 2°50.077 242.9 14.7 240.1 17.5
2003-03-05 10:46:19 51°12.878 2°50.037 243.1 14.7 240.2 17.5
2003-03-05 10:46:24 51°12.868 2°50.01 243.2 14.7 240.3 17.5
2003-03-05 10:46:29 51°12.858 2°49.981 243.1 14.7 240.2 17.5
2003-03-05 10:46:33 51°12.85 2°49.959 243 14.7 240.2 17.6
2003-03-05 10:46:38 51°12.84 2°49.931 242.9 14.7 240.1 17.7
2003-03-05 10:46:44 51°12.828 2°49.897 243.2 14.7 240.3 17.6
2003-03-05 10:46:49 51°12.818 2°49.869 243.3 14.7 240.4 17.6
2003-03-05 10:46:53 51°12.81 2°49.847 243.3 14.6 240.5 17.7
2003-03-05 10:47:03 51°12.79 2°49.791 242.8 14.6 240.2 17.8
2003-03-05 10:47:06 51°12.784 2°49.774 243.2 14.6 240.1 17.7
2003-03-05 10:47:13 51°12.77 2°49.735 243.2 14.6 240.3 17.7
2003-03-05 10:47:15 51°12.766 2°49.724 243.1 14.6 240.2 17.7
2003-03-05 10:47:23 51°12.749 2°49.679 243 14.6 240.2 17.6
2003-03-05 10:47:28 51°12.739 2°49.651 243.1 14.6 240.1 17.9
2003-03-05 10:47:33 51°12.729 2°49.623 243.5 14.6 240.4 17.9
2003-03-05 10:47:38 51°12.719 2°49.595 243.6 14.6 240.6 17.8
2003-03-05 10:47:42 51°12.711 2°49.572 243.6 14.6 240.6 17.9
2003-03-05 10:47:45 51°12.705 2°49.556 243.2 14.6 240.4 17.9
2003-03-05 10:47:53 51°12.689 2°49.511 243.1 14.6 240.2 17.9
2003-03-05 10:47:57 51°12.681 2°49.489 242.9 14.6 240 17.8
2003-03-05 10:48:03 51°12.668 2°49.455 243 14.6 240 18
2003-03-05 10:48:08 51°12.658 2°49.427 243.1 14.6 240.4 17.9
2003-03-05 10:48:13 51°12.648 2°49.399 243.3 14.6 240.4 17.9
2003-03-05 10:48:16 51°12.642 2°49.383 243.3 14.6 240.5 18.1
2003-03-05 10:48:23 51°12.628 2°49.343 243.2 14.6 240.4 18
2003-03-05 10:48:28 51°12.618 2°49.316 243.1 14.5 240.3 18
2003-03-05 10:48:33 51°12.608 2°49.288 242.9 14.5 240.1 18.1
2003-03-05 10:48:38 51°12.598 2°49.26 242.8 14.6 240.1 18.2
2003-03-05 10:48:41 51°12.592 2°49.243 243.2 14.6 240.5 18.2
2003-03-05 10:48:48 51°12.578 2°49.204 243.5 14.5 240.6 18.2
2003-03-05 10:48:53 51°12.568 2°49.176 243.6 14.6 240.8 18.3
2003-03-05 10:48:57 51°12.56 2°49.153 243.6 14.5 240.7 20.8
2003-03-05 10:49:03 51°12.548 2°49.12 243.2 14.5 240.4 18.3
2003-03-05 10:49:08 51°12.538 2°49.092 243.2 14.6 240.4 18.1
2003-03-05 10:49:13 51°12.528 2°49.064 243.1 14.6 240.3 18.2
2003-03-05 10:49:16 51°12.522 2°49.047 243.1 14.5 240.4 18.2
2003-03-05 10:49:23 51°12.508 2°49.008 243.2 14.5 240.5 18.2
2003-03-05 10:49:28 51°12.499 2°48.98 243.3 14.5 240.5 18.1
2003-03-05 10:49:33 51°12.489 2°48.952 243.3 14.5 240.5 18.2
2003-03-05 10:49:35 51°12.485 2°48.941 243.2 14.5 240.5 18.1
2003-03-05 10:49:43 51°12.469 2°48.896 243.1 14.5 240.4 18.2
2003-03-05 10:49:46 51°12.463 2°48.879 243.9 14.5 240.9 18.2
2003-03-05 10:49:53 51°12.45 2°48.84 244.5 14.5 241.7 18.3
2003-03-05 10:49:57 51°12.442 2°48.817 244.9 14.5 241.9 18.2
2003-03-05 10:50:03 51°12.431 2°48.783 245.3 14.6 242.5 20.1
2003-03-05 10:50:08 51°12.422 2°48.754 245.5 14.5 242.6 18.4
2003-03-05 10:50:12 51°12.414 2°48.731 245.6 14.5 242.7 18.4
2003-03-05 10:50:17 51°12.405 2°48.703 245.5 14.6 242.6 18.5
2003-03-05 10:50:23 51°12.393 2°48.669 245.5 14.6 242.5 18.4
2003-03-05 10:50:28 51°12.384 2°48.64 245.1 14.6 242.2 18.4
2003-03-05 10:50:33 51°12.375 2°48.612 245.2 14.6 242.2 18.5
2003-03-05 10:50:38 51°12.365 2°48.583 245.4 14.6 242.3 20.5
2003-03-05 10:50:43 51°12.356 2°48.555 245.4 14.6 242.4 18.6
2003-03-05 10:50:48 51°12.347 2°48.526 245.4 14.5 242.5 18.6
2003-03-05 10:50:53 51°12.337 2°48.498 245.4 14.5 242.4 18.6
2003-03-05 10:50:58 51°12.328 2°48.469 245.5 14.5 242.4 18.7
2003-03-05 10:51:01 51°12.322 2°48.452 245.5 14.5 242.5 18.6
2003-03-05 10:51:08 51°12.309 2°48.413 245.3 14.5 242.4 20.8
2003-03-05 10:51:13 51°12.3 2°48.384 245.1 14.5 242.2 18.8
2003-03-05 10:51:22 51°12.283 2°48.333 245.5 14.5 242.5 18.8
2003-03-05 10:51:25 51°12.278 2°48.316 245.6 14.5 242.5 18.6
2003-03-05 10:51:31 51°12.266 2°48.282 245.2 14.5 242.3 18.7
2003-03-05 10:51:36 51°12.257 2°48.254 245.1 14.5 242.2 18.6
2003-03-05 10:51:41 51°12.248 2°48.225 245.3 14.5 242.3 22
2003-03-05 10:51:45 51°12.24 2°48.202 245.3 14.5 242.4 18.8
2003-03-05 10:51:52 51°12.227 2°48.162 245.6 14.5 242.7 18.8
2003-03-05 10:51:57 51°12.218 2°48.134 245.4 14.5 242.4 18.9
2003-03-05 10:52:02 51°12.209 2°48.106 245.3 14.5 242.4 19
2003-03-05 10:52:05 51°12.203 2°48.089 245.3 14.5 242.3 19
2003-03-05 10:52:12 51°12.19 2°48.049 245.4 14.5 242.4 19.1
2003-03-05 10:52:17 51°12.181 2°48.021 245.5 14.5 242.6 19.1
2003-03-05 10:52:22 51°12.171 2°47.993 245.4 14.5 242.3 22
2003-03-05 10:52:27 51°12.162 2°47.964 245.3 14.5 242.4 19
2003-03-05 10:52:32 51°12.153 2°47.936 245.2 14.5 242.1 18.9
2003-03-05 10:52:37 51°12.143 2°47.907 245.3 14.5 242.2 19.1
2003-03-05 10:52:42 51°12.134 2°47.879 245.4 14.5 242.5 20.6
2003-03-05 10:52:47 51°12.125 2°47.851 245.6 14.5 242.6 19.1
2003-03-05 10:52:52 51°12.116 2°47.822 245.7 14.5 242.7 19
2003-03-05 10:52:57 51°12.106 2°47.794 245.2 14.4 242.3 19.1
2003-03-05 10:53:00 51°12.101 2°47.777 245.2 14.5 242.2 19.1
2003-03-05 10:53:07 51°12.087 2°47.738 245.3 14.5 242.2 19.1
2003-03-05 10:53:12 51°12.078 2°47.709 245.3 14.5 242.4 19.1
2003-03-05 10:53:16 51°12.071 2°47.687 245.3 14.5 242.4 22.9
2003-03-05 10:53:22 51°12.06 2°47.653 245.4 14.4 242.6 19
2003-03-05 10:53:25 51°12.054 2°47.636 245.2 14.4 242.2 19
2003-03-05 10:53:29 51°12.047 2°47.613 245.2 14.5 242.3 21.6
2003-03-05 10:53:37 51°12.032 2°47.568 245.5 14.5 242.5 19.1
2003-03-05 10:53:41 51°12.024 2°47.545 245.5 14.4 242.5 19.1
2003-03-05 10:53:45 51°12.017 2°47.523 245.3 14.4 242.4 19.1
2003-03-05 10:53:52 51°12.004 2°47.483 245.2 14.4 242.4 19.1
2003-03-05 10:53:57 51°11.995 2°47.455 245.5 14.4 242.5 19.1
2003-03-05 10:54:01 51°11.987 2°47.432 245.4 14.4 242.4 19.1
2003-03-05 10:54:05 51°11.98 2°47.41 245.3 14.4 242.3 19.1
2003-03-05 10:54:11 51°11.968 2°47.376 245 14.4 242.1 19.2
2003-03-05 10:54:17 51°11.957 2°47.342 245.2 14.4 242.2 21.7
2003-03-05 10:54:21 51°11.95 2°47.32 245.3 14.4 242.2 19.1
2003-03-05 10:54:27 51°11.939 2°47.286 245.5 14.4 242.4 19.1
2003-03-05 10:54:31 51°11.931 2°47.263 245.4 14.4 242.4 18.8
2003-03-05 10:54:36 51°11.922 2°47.235 245.1 14.4 242.1 19.1
2003-03-05 10:54:41 51°11.913 2°47.207 245.3 14.4 242.2 19
2003-03-05 10:54:45 51°11.906 2°47.185 245.5 14.4 242.4 19
2003-03-05 10:54:52 51°11.892 2°47.146 245.3 14.4 242.2 18.9
2003-03-05 10:54:55 51°11.887 2°47.129 245.4 14.4 242.3 18.8
2003-03-05 10:55:04 51°11.87 2°47.078 245.5 14.4 242.5 18.8
2003-03-05 10:55:09 51°11.861 2°47.05 245.5 14.4 242.3 18.9
2003-03-05 10:55:14 51°11.852 2°47.022 245.4 14.4 242.4 18.9
2003-03-05 10:55:16 51°11.848 2°47.011 245.3 14.4 242.3 18.9
2003-03-05 10:55:25 51°11.831 2°46.96 245.3 14.4 242.3 19
2003-03-05 10:55:29 51°11.824 2°46.937 245.5 14.4 242.3 18.8
2003-03-05 10:55:35 51°11.813 2°46.903 245.4 14.4 242.4 22.4
2003-03-05 10:55:39 51°11.805 2°46.881 245.3 14.4 242.2 19.1
2003-03-05 10:55:45 51°11.794 2°46.847 245.3 14.4 242.2 19
2003-03-05 10:55:48 51°11.788 2°46.83 245.5 14.4 242.3 19.1
2003-03-05 10:55:55 51°11.775 2°46.79 245.3 14.4 242.3 19
2003-03-05 10:55:57 51°11.772 2°46.779 245.6 14.5 242.3 19
2003-03-05 10:56:05 51°11.757 2°46.733 247 14.4 243.5 19.1
2003-03-05 10:56:09 51°11.751 2°46.71 248.2 14.4 244.4 19.1
2003-03-05 10:56:13 51°11.744 2°46.687 249 14.4 245.5 19.2
2003-03-05 10:56:20 51°11.733 2°46.646 249.5 14.4 246.2 19.2
2003-03-05 10:56:25 51°11.725 2°46.617 250 14.4 246.5 19.2
2003-03-05 10:56:30 51°11.717 2°46.587 250.4 14.4 247 19.2
2003-03-05 10:56:33 51°11.712 2°46.569 250.8 14.4 247.3 19.3
2003-03-05 10:56:45 51°11.694 2°46.499 250.9 14.4 247.3 19.4
2003-03-05 10:56:49 51°11.688 2°46.475 250.8 14.4 247.2 19.1
2003-03-05 10:56:54 51°11.68 2°46.446 250.7 14.4 247.3 19.4
2003-03-05 10:57:00 51°11.67 2°46.41 250.7 14.4 247.2 22.4
2003-03-05 10:57:05 51°11.663 2°46.381 250.7 14.4 247.2 19.4
2003-03-05 10:57:09 51°11.656 2°46.357 250.4 14.4 247.3 19.4
2003-03-05 10:57:15 51°11.647 2°46.322 251.1 14.4 247.5 19.5
2003-03-05 10:57:19 51°11.642 2°46.298 253.9 14.4 248.6 19.6
2003-03-05 10:57:24 51°11.635 2°46.268 255.7 14.4 251.5 22.9
2003-03-05 10:57:33 51°11.625 2°46.212 258 14.4 253.9 19.6
2003-03-05 10:57:37 51°11.621 2°46.188 259.1 14.4 254.7 19.8
2003-03-05 10:57:43 51°11.616 2°46.151 259.8 14.4 255.7 19.7
2003-03-05 10:57:45 51°11.614 2°46.138 260.4 14.4 256.3 19.8
2003-03-05 10:57:53 51°11.607 2°46.089 261.2 14.5 256.8 19.9
2003-03-05 10:57:58 51°11.602 2°46.058 261.2 14.5 257.1 22.9
2003-03-05 10:58:01 51°11.6 2°46.039 261.7 14.5 257.6 19.9
2003-03-05 10:58:05 51°11.596 2°46.014 261.7 14.5 257.4 20
2003-03-05 10:58:13 51°11.589 2°45.964 261.6 14.5 257.6 19.9
2003-03-05 10:58:17 51°11.586 2°45.939 261.4 14.5 257.2 20
2003-03-05 10:58:21 51°11.582 2°45.914 261.3 14.4 257.2 20.1
2003-03-05 10:58:28 51°11.576 2°45.871 261.2 14.5 257 19.7
2003-03-05 10:58:33 51°11.571 2°45.839 261.2 14.5 257.1 20
2003-03-05 10:58:38 51°11.567 2°45.808 261.2 14.5 256.9 20.2
2003-03-05 10:58:41 51°11.564 2°45.79 261.2 14.5 257 20.6
2003-03-05 10:58:45 51°11.561 2°45.765 261.2 14.5 257 20.7
2003-03-05 10:58:53 51°11.553 2°45.715 261.2 14.5 257.1 20.5
2003-03-05 10:58:57 51°11.55 2°45.69 261.4 14.5 257.2 20.5
2003-03-05 10:59:03 51°11.544 2°45.653 261.3 14.5 257.1 20.6
2003-03-05 10:59:13 51°11.535 2°45.591 260.7 14.5 256.6 20.7
2003-03-05 10:59:17 51°11.531 2°45.566 260.6 14.5 256.5 20.8
2003-03-05 10:59:23 51°11.526 2°45.528 260.9 14.5 256.7 20.8
2003-03-05 10:59:28 51°11.521 2°45.497 261.2 14.5 257 20.9
2003-03-05 10:59:33 51°11.517 2°45.467 261 14.4 256.9 20.8
2003-03-05 10:59:37 51°11.513 2°45.441 260.7 14.5 256.7 24.1
2003-03-05 10:59:43 51°11.508 2°45.404 260.8 14.5 256.8 20.8
2003-03-05 10:59:48 51°11.503 2°45.373 260.8 14.4 256.8 20.9
2003-03-05 10:59:53 51°11.499 2°45.342 261 14.4 256.9 24.4
2003-03-05 10:59:58 51°11.494 2°45.311 261 14.4 256.9 21
2003-03-05 11:00:02 51°11.49 2°45.286 260.6 14.4 256.7 24.2
2003-03-05 11:00:05 51°11.487 2°45.268 260.6 14.4 256.5 24.3
2003-03-05 11:00:13 51°11.48 2°45.218 260.7 14.4 256.7 23.8
2003-03-05 11:00:17 51°11.476 2°45.193 260.8 14.4 256.9 21.9
2003-03-05 11:00:23 51°11.471 2°45.156 260.8 14.4 256.8 23
2003-03-05 11:00:28 51°11.466 2°45.125 260.7 14.4 256.8 21.1
2003-03-05 11:00:33 51°11.462 2°45.094 260.5 14.4 256.7 24.7
2003-03-05 11:00:37 51°11.458 2°45.069 260.8 14.4 256.8 21.4
2003-03-05 11:00:43 51°11.453 2°45.032 260.9 14.4 256.9 24.1
2003-03-05 11:00:47 51°11.449 2°45.007 260.9 14.4 256.9 21.3
2003-03-05 11:00:53 51°11.444 2°44.97 260.6 14.4 256.7 21.2
2003-03-05 11:00:56 51°11.441 2°44.952 260.4 14.4 256.6 24.6
2003-03-05 11:01:01 51°11.436 2°44.921 260.7 14.4 256.5 24.8
2003-03-05 11:01:07 51°11.431 2°44.884 260.7 14.4 256.7 21.3
2003-03-05 11:01:12 51°11.426 2°44.853 260.6 14.3 256.7 24.6
2003-03-05 11:01:17 51°11.422 2°44.822 260.6 14.3 256.6 24.4
2003-03-05 11:01:22 51°11.417 2°44.791 260.6 14.3 256.6 24.3
2003-03-05 11:01:28 51°11.412 2°44.754 260.5 14.3 256.6 21.4
2003-03-05 11:01:33 51°11.407 2°44.723 260.5 14.3 256.6 24.7
2003-03-05 11:01:37 51°11.403 2°44.699 260.5 14.3 256.6 24.5
2003-03-05 11:01:43 51°11.398 2°44.662 260.5 14.3 256.5 21.3
2003-03-05 11:01:48 51°11.393 2°44.631 260.4 14.3 256.5 23.1
2003-03-05 11:01:53 51°11.389 2°44.601 260.6 14.3 256.6 25.5
2003-03-05 11:01:57 51°11.385 2°44.576 260.7 14.3 256.7 24.5
2003-03-05 11:02:03 51°11.379 2°44.539 260.5 14.3 256.6 21.5
2003-03-05 11:02:08 51°11.375 2°44.508 260.5 14.2 256.5 21.5
2003-03-05 11:02:12 51°11.371 2°44.484 260.6 14.3 256.6 21.6
2003-03-05 11:02:18 51°11.366 2°44.447 260.9 14.3 256.8 21.5
2003-03-05 11:02:23 51°11.361 2°44.417 260.8 14.2 256.8 21.5
2003-03-05 11:02:28 51°11.357 2°44.386 260.6 14.2 256.6 21.6
2003-03-05 11:02:33 51°11.352 2°44.355 260.4 14.3 256.5 24.8
2003-03-05 11:02:37 51°11.348 2°44.331 260.4 14.2 256.4 21.5
2003-03-05 11:02:43 51°11.343 2°44.294 260.5 14.2 256.6 21.6
2003-03-05 11:02:48 51°11.339 2°44.264 261 14.2 256.9 21.5
2003-03-05 11:02:52 51°11.335 2°44.239 260.7 14.2 256.8 24.7
2003-03-05 11:02:57 51°11.33 2°44.209 260.5 14.2 256.8 21.5
2003-03-05 11:03:01 51°11.327 2°44.185 260.5 14.2 256.5 21.5
2003-03-05 11:03:08 51°11.32 2°44.142 260.4 14.2 256.7 21.6
2003-03-05 11:03:13 51°11.316 2°44.112 260.4 14.2 256.5 21.7
2003-03-05 11:03:17 51°11.312 2°44.087 260.7 14.1 256.7 21.7
2003-03-05 11:03:23 51°11.307 2°44.051 260.3 14.1 256.6 21.7
2003-03-05 11:03:26 51°11.304 2°44.033 259.2 14.2 255.9 23.4
2003-03-05 11:03:33 51°11.296 2°43.991 258.4 14.1 255.1 21.7
2003-03-05 11:03:38 51°11.291 2°43.961 258 14.1 254.4 21.7
2003-03-05 11:03:41 51°11.288 2°43.943 257.6 14.1 253.9 21.7
2003-03-05 11:03:47 51°11.281 2°43.907 257.3 14.1 253.8 21.6
2003-03-05 11:03:53 51°11.275 2°43.871 257.1 14.1 253.6 21.6
2003-03-05 11:03:57 51°11.27 2°43.847 257.3 14.1 253.6 21.7
2003-03-05 11:04:01 51°11.266 2°43.823 257.4 14.1 253.8 21.6
2003-03-05 11:04:08 51°11.258 2°43.781 257.4 14.1 253.7 21.6
2003-03-05 11:04:13 51°11.253 2°43.752 257.1 14.1 253.6 23.5
2003-03-05 11:04:17 51°11.248 2°43.728 257.4 14.1 253.6 23.5
2003-03-05 11:04:23 51°11.242 2°43.692 257.5 14.1 253.8 25
2003-03-05 11:04:27 51°11.238 2°43.668 257 14.1 253.6 21.7
2003-03-05 11:04:33 51°11.231 2°43.632 257.1 14.1 253.6 21.7
2003-03-05 11:04:38 51°11.225 2°43.602 257.5 14.1 253.7 24.9
2003-03-05 11:04:41 51°11.222 2°43.584 257.4 14.1 253.8 21.7
2003-03-05 11:04:45 51°11.218 2°43.561 257.2 14.1 253.7 24.8
2003-03-05 11:04:53 51°11.209 2°43.513 257.5 14.1 253.8 25.2
2003-03-05 11:04:57 51°11.205 2°43.489 257.4 14 253.8 24.7
2003-03-05 11:05:03 51°11.198 2°43.454 257.2 14.1 253.8 21.8
2003-03-05 11:05:06 51°11.195 2°43.436 257.4 14.1 253.7 21.6
2003-03-05 11:05:13 51°11.187 2°43.394 257.3 14 253.7 24.7
2003-03-05 11:05:17 51°11.183 2°43.37 257.1 14 253.6 21.8
2003-03-05 11:05:23 51°11.176 2°43.335 257 14 253.5 21.7
2003-03-05 11:05:28 51°11.17 2°43.305 257 14 253.4 21.7
2003-03-05 11:05:33 51°11.165 2°43.275 257.2 14.1 253.6 21.6
2003-03-05 11:05:37 51°11.161 2°43.251 257.6 14 253.9 25.1
2003-03-05 11:05:41 51°11.156 2°43.228 257.6 14 253.9 21.8
2003-03-05 11:05:48 51°11.149 2°43.186 257.2 14 253.7 21.8
2003-03-05 11:05:53 51°11.143 2°43.157 257.1 14 253.5 25
2003-03-05 11:05:57 51°11.139 2°43.133 257.3 14 253.5 21.8
2003-03-05 11:06:03 51°11.132 2°43.097 257.4 14 253.7 21.8
2003-03-05 11:06:08 51°11.127 2°43.068 257.4 14 253.6 23.8
2003-03-05 11:06:13 51°11.121 2°43.038 256.9 14 253.4 21.8
2003-03-05 11:06:17 51°11.116 2°43.015 257.1 14 253.3 21.8
2003-03-05 11:06:23 51°11.11 2°42.979 257.1 14 253.4 21.8
2003-03-05 11:06:28 51°11.104 2°42.949 257.1 14 253.5 23.8
2003-03-05 11:06:33 51°11.099 2°42.92 257.1 14 253.4 21.9
2003-03-05 11:06:37 51°11.094 2°42.896 257.2 14 253.5 21.9
2003-03-05 11:06:42 51°11.089 2°42.866 257.2 14 253.5 24.7
2003-03-05 11:06:48 51°11.082 2°42.831 257.4 14 253.6 23.1
2003-03-05 11:06:53 51°11.077 2°42.801 257.4 14 253.7 21.9
2003-03-05 11:06:57 51°11.073 2°42.777 257.3 14 253.6 21.8
2003-03-05 11:07:03 51°11.066 2°42.742 257.1 14 253.4 25.4
2003-03-05 11:07:13 51°11.055 2°42.684 257.4 13.8 253.4 25
2003-03-05 11:07:17 51°11.051 2°42.662 257.2 13.4 253.5 21.8
2003-03-05 11:07:23 51°11.045 2°42.63 257.2 12.8 253.3 21.8
2003-03-05 11:07:25 51°11.043 2°42.619 257.1 12.2 253.3 21.9
2003-03-05 11:07:33 51°11.035 2°42.58 257.3 11.8 253.3 22
2003-03-05 11:07:37 51°11.032 2°42.561 256.9 11.5 253.1 21.9
2003-03-05 11:07:41 51°11.028 2°42.542 256.2 11.3 252.7 22.1
2003-03-05 11:07:48 51°11.021 2°42.51 255.7 11 252 22
2003-03-05 11:07:52 51°11.018 2°42.492 255.6 10.8 251.5 25.7
2003-03-05 11:07:57 51°11.013 2°42.47 255.4 10.6 251.6 23.1
2003-03-05 11:08:03 51°11.007 2°42.444 254.7 10.5 251.2 22.3
2003-03-05 11:08:07 51°11.004 2°42.426 256.9 10.4 251.9 22.2
2003-03-05 11:08:13 51°11 2°42.4 260.2 10.2 255.2 22.1
2003-03-05 11:08:17 51°10.999 2°42.383 266.3 10.1 258.6 22.1
2003-03-05 11:08:20 51°10.998 2°42.37 270.1 9.8 263.8 22.2
2003-03-05 11:08:28 51°10.997 2°42.336 272.9 9.5 267.1 22.2
2003-03-05 11:08:33 51°10.997 2°42.316 275.1 9.2 269.6 22.1
2003-03-05 11:08:37 51°10.998 2°42.301 279.2 8.9 272.3 22.3
2003-03-05 11:08:41 51°10.999 2°42.286 281.9 8.7 275.5 22.2
2003-03-05 11:08:48 51°11.002 2°42.26 284.1 8.5 278.2 23.1
2003-03-05 11:08:53 51°11.004 2°42.242 285.3 8.3 279.8 22.2
2003-03-05 11:08:57 51°11.006 2°42.228 286.3 8.2 280.8 24
2003-03-05 11:09:03 51°11.008 2°42.207 287 8.1 281.9 22
2003-03-05 11:09:08 51°11.011 2°42.19 287.4 8 282.2 22.1
2003-03-05 11:09:13 51°11.013 2°42.173 287.7 7.8 282.8 22
2003-03-05 11:09:17 51°11.015 2°42.161 288.6 7.6 283.8 22.2
2003-03-05 11:09:23 51°11.019 2°42.143 291.9 7.2 285.6 22.1
2003-03-05 11:09:28 51°11.022 2°42.129 296.8 6.8 289.3 22.1
2003-03-05 11:09:33 51°11.026 2°42.117 301.9 6.3 294.3 22
2003-03-05 11:09:37 51°11.029 2°42.109 307.1 6 297.9 21.9
2003-03-05 11:09:43 51°11.034 2°42.098 310.6 5.6 302.6 21.9
2003-03-05 11:09:48 51°11.039 2°42.089 315.1 5.2 307.6 21.9
2003-03-05 11:09:53 51°11.043 2°42.081 317.9 4.9 311.5 22
2003-03-05 11:09:57 51°11.047 2°42.075 321.7 4.6 314.9 21.9
2003-03-05 11:10:01 51°11.05 2°42.071 325.4 4.4 318.1 25.3
2003-03-05 11:10:06 51°11.055 2°42.065 329.7 4.2 321 21.7
2003-03-05 11:10:13 51°11.061 2°42.058 333 4 325.1 25.5
2003-03-05 11:10:17 51°11.065 2°42.055 335.2 3.7 328.6 25.3
2003-03-05 11:10:23 51°11.07 2°42.051 337.1 3.6 329.7 21.8
2003-03-05 11:10:28 51°11.074 2°42.048 339.1 3.3 332.8 21.6
2003-03-05 11:10:33 51°11.077 2°42.045 341.8 3 335.6 25.2
2003-03-05 11:10:37 51°11.08 2°42.044 344.5 2.8 337.5 21.7
2003-03-05 11:10:43 51°11.084 2°42.042 346.6 2.5 340.7 25.3
2003-03-05 11:10:47 51°11.086 2°42.041 348.3 2.3 342.8 25
2003-03-05 11:10:53 51°11.089 2°42.039 349.8 2.2 344.9 21.6
2003-03-05 11:10:57 51°11.092 2°42.038 351.1 2.2 346.2 21.6
2003-03-05 11:11:03 51°11.095 2°42.037 352.4 2.1 347.1 21.6
2003-03-05 11:11:05 51°11.097 2°42.037 353.4 2.1 349.3 21.6
2003-03-05 11:11:13 51°11.101 2°42.036 354.9 2.1 351.2 25.4
2003-03-05 11:11:17 51°11.103 2°42.035 356.2 2 352.3 21.6
2003-03-05 11:11:21 51°11.105 2°42.035 357.5 2 353.7 21.5
2003-03-05 11:11:28 51°11.109 2°42.034 358.5 1.9 354.8 21.5
2003-03-05 11:11:33 51°11.112 2°42.034 359.5 1.9 356.6 24.9
2003-03-05 11:11:37 51°11.114 2°42.034 0.6 1.8 357.8 21.4
2003-03-05 11:11:43 51°11.116 2°42.034 1.5 1.8 358.5 21.4
2003-03-05 11:11:48 51°11.118 2°42.034 2 1.6 359.8 21.6
2003-03-05 11:11:52 51°11.12 2°42.035 1.7 1.4 0.4 21.6
2003-03-05 11:11:58 51°11.122 2°42.035 0.9 1.3 359.9 21.5
2003-03-05 11:12:01 51°11.123 2°42.035 359.6 1.2 0.8 21.5
2003-03-05 11:12:05 51°11.124 2°42.035 358.2 1.1 359.9 21.5
2003-03-05 11:12:15 51°11.127 2°42.034 356.3 1.1 359.4 21.4
2003-03-05 11:12:20 51°11.129 2°42.034 355.1 1.1 358.8 24.9
2003-03-05 11:12:25 51°11.13 2°42.034 353.9 1.1 358.6 21.6
2003-03-05 11:12:28 51°11.131 2°42.034 352.9 1 358.3 21.5
2003-03-05 11:12:35 51°11.133 2°42.034 352 1 358.3 21.5
2003-03-05 11:12:37 51°11.134 2°42.034 350.9 1 356.9 21.4
2003-03-05 11:12:45 51°11.136 2°42.034 349.8 1 355.6 23
2003-03-05 11:12:49 51°11.137 2°42.034 348.7 0.9 354.6 21.4
2003-03-05 11:12:54 51°11.138 2°42.033 347.7 0.9 354.7 21.4
2003-03-05 11:13:00 51°11.139 2°42.033 346.8 0.9 354.5 24.6
2003-03-05 11:13:05 51°11.141 2°42.033 346.2 0.9 353.7 24.8
2003-03-05 11:13:09 51°11.142 2°42.033 345.8 0.8 354.2 21.5
2003-03-05 11:13:15 51°11.143 2°42.033 345.5 0.8 354.4 24.9
2003-03-05 11:13:20 51°11.144 2°42.032 345.3 0.8 354.9 21.5
2003-03-05 11:13:24 51°11.145 2°42.032 345 0.8 354.5 21.5
2003-03-05 11:13:29 51°11.146 2°42.032 344.7 0.8 353 21.5
2003-03-05 11:13:32 51°11.147 2°42.032 344.5 0.8 353.9 21.4
2003-03-05 11:13:40 51°11.149 2°42.032 344.2 0.8 353 21.4
2003-03-05 11:13:45 51°11.15 2°42.031 343.9 0.8 352.6 21.4
2003-03-05 11:13:49 51°11.151 2°42.031 343.6 0.8 352.7 21.4
2003-03-05 11:13:55 51°11.152 2°42.031 343.3 0.8 352.8 21.4
2003-03-05 11:13:57 51°11.152 2°42.031 342.9 0.8 352.8 21.4
2003-03-05 11:14:05 51°11.154 2°42.03 342.5 0.8 352.1 21.5
2003-03-05 11:14:09 51°11.155 2°42.03 342.3 0.8 353 21.3
2003-03-05 11:14:15 51°11.156 2°42.03 341.9 0.8 353 21.2
2003-03-05 11:14:20 51°11.157 2°42.03 341.6 0.8 353.4 21.4
2003-03-05 11:14:25 51°11.159 2°42.029 341.3 0.8 353.3 21.4
2003-03-05 11:14:29 51°11.16 2°42.029 341 0.8 352.9 21.4
2003-03-05 11:14:33 51°11.16 2°42.029 340.7 0.8 353 21.5
2003-03-05 11:14:36 51°11.161 2°42.029 340.4 0.8 351.4 21.5
2003-03-05 11:14:45 51°11.163 2°42.029 340.1 0.8 351.6 21.5
2003-03-05 11:14:49 51°11.164 2°42.028 339.8 0.8 351.6 21.5
2003-03-05 11:14:54 51°11.165 2°42.028 339.5 0.8 351 21.4
2003-03-05 11:15:00 51°11.166 2°42.028 339.1 0.8 351.4 24.7
2003-03-05 11:15:05 51°11.167 2°42.027 338.8 0.8 350 24.8
2003-03-05 11:15:09 51°11.168 2°42.027 338.4 0.8 350.2 21.4
2003-03-05 11:15:13 51°11.169 2°42.027 338 0.8 348.9 24.8
2003-03-05 11:15:20 51°11.171 2°42.026 337.5 0.8 349 21.4
2003-03-05 11:15:25 51°11.172 2°42.026 337.2 0.8 348.7 21.5
2003-03-05 11:15:29 51°11.172 2°42.026 336.8 0.8 347.2 21.4
2003-03-05 11:15:35 51°11.174 2°42.025 336.5 0.8 347.6 21.3
2003-03-05 11:15:40 51°11.175 2°42.025 336 0.8 347.8 21.2
2003-03-05 11:15:45 51°11.175 2°42.024 335.5 0.8 347.1 21.3
2003-03-05 11:15:49 51°11.176 2°42.024 335.1 0.8 346.3 21.3
2003-03-05 11:15:55 51°11.178 2°42.024 334.5 0.8 345.5 21.3
2003-03-05 11:16:00 51°11.179 2°42.023 334.1 0.8 345.9 21.3
2003-03-05 11:16:05 51°11.18 2°42.023 333.8 0.8 345 21.4
2003-03-05 11:16:09 51°11.181 2°42.022 333.1 0.8 344.8 21.4
2003-03-05 11:16:15 51°11.182 2°42.022 332.6 0.8 344.6 21.4
2003-03-05 11:16:20 51°11.183 2°42.021 332 0.8 345.2 21.3
2003-03-05 11:16:25 51°11.184 2°42.021 331.4 0.8 343.3 24.7
2003-03-05 11:16:30 51°11.185 2°42.02 330.7 0.8 342.6 21.2
2003-03-05 11:16:33 51°11.186 2°42.02 329.9 0.8 341.6 21.3
2003-03-05 11:16:37 51°11.187 2°42.019 329.2 0.8 342.1 21.3
2003-03-05 11:16:45 51°11.188 2°42.018 328.5 0.7 340.2 21.4
2003-03-05 11:16:49 51°11.189 2°42.018 327.8 0.8 341.1 21.3
2003-03-05 11:16:55 51°11.19 2°42.017 327.1 0.8 340.3 21.4
2003-03-05 11:17:00 51°11.192 2°42.017 326.4 0.7 340.3 21.3
2003-03-05 11:17:05 51°11.193 2°42.016 325.7 0.8 332.8 21.3
2003-03-05 11:17:10 51°11.194 2°42.014 323.7 1.2 328.3 21.4
2003-03-05 11:17:13 51°11.195 2°42.012 319.2 1.6 320.8 21.5
2003-03-05 11:17:20 51°11.198 2°42.008 313.5 2.1 313 21.4
2003-03-05 11:17:25 51°11.201 2°42.003 307 2.4 307.7 21.5
2003-03-05 11:17:29 51°11.202 2°41.998 300.4 2.7 301.1 21.5
2003-03-05 11:17:33 51°11.204 2°41.993 294.8 3.2 293.1 24.8
2003-03-05 11:17:40 51°11.206 2°41.982 289.6 3.7 286.8 24.8
2003-03-05 11:17:45 51°11.207 2°41.973 284.6 3.9 282.6 25.1
2003-03-05 11:17:49 51°11.207 2°41.965 279.9 4.2 278.4 21.7
2003-03-05 11:17:52 51°11.207 2°41.959 275 4.5 272.6 21.6
2003-03-05 11:18:00 51°11.207 2°41.942 270.1 4.9 266.7 25.1
2003-03-05 11:18:05 51°11.206 2°41.931 265.3 5 262.5 21.7
2003-03-05 11:18:07 51°11.205 2°41.927 260.4 5.2 258.4 21.6
2003-03-05 11:18:15 51°11.201 2°41.908 255.4 5.4 253.1 21.6
2003-03-05 11:18:20 51°11.198 2°41.897 251.6 5.6 250.4 21.6
2003-03-05 11:18:25 51°11.194 2°41.884 249 6 245.6 21.6
2003-03-05 11:18:29 51°11.19 2°41.873 246.7 7 242.6 21.6
2003-03-05 11:18:33 51°11.186 2°41.86 244.5 7.8 241.1 21.5
2003-03-05 11:18:37 51°11.181 2°41.847 242.8 9.1 239.4 21.4
2003-03-05 11:18:45 51°11.169 2°41.817 242.4 9.8 238.7 21.4
2003-03-05 11:18:49 51°11.163 2°41.8 243.5 10.5 238.6 21.4
2003-03-05 11:18:55 51°11.153 2°41.773 243.8 11.3 239.4 21.4
2003-03-05 11:19:00 51°11.144 2°41.75 243.3 12 239 21.4
2003-03-05 11:19:05 51°11.135 2°41.727 242.3 12.3 238.4 21.2
2003-03-05 11:19:09 51°11.127 2°41.708 241.6 12.6 237.6 23.3
2003-03-05 11:19:15 51°11.116 2°41.679 241.4 12.9 237.3 23.6
2003-03-05 11:19:20 51°11.106 2°41.655 241.3 13 237.3 21.3
2003-03-05 11:19:25 51°11.096 2°41.63 241.4 13.3 237.6 24.8
2003-03-05 11:19:29 51°11.088 2°41.61 242.2 13.4 237.5 24.4
2003-03-05 11:19:35 51°11.076 2°41.579 242.7 13.5 238.5 24.5
2003-03-05 11:19:40 51°11.066 2°41.553 242.8 13.5 238.7 21.4
2003-03-05 11:19:45 51°11.057 2°41.527 243.3 13.6 239.1 21.4
2003-03-05 11:19:49 51°11.049 2°41.507 243.8 13.7 239.3 21.5
2003-03-05 11:19:52 51°11.043 2°41.491 243.8 13.7 239.6 21.5
2003-03-05 11:20:00 51°11.028 2°41.449 243.8 13.7 239.6 24.4
2003-03-05 11:20:04 51°11.02 2°41.428 243.8 13.7 239.7 21.7
2003-03-05 11:20:10 51°11.009 2°41.397 243.8 13.7 239.7 24.7
2003-03-05 11:20:13 51°11.003 2°41.381 243.9 13.8 239.8 21.7
2003-03-05 11:20:19 51°10.991 2°41.35 243.9 13.8 239.8 21.8
2003-03-05 11:20:25 51°10.98 2°41.318 243.9 13.8 239.7 21.8
2003-03-05 11:20:29 51°10.972 2°41.297 243.8 13.8 239.4 25.1
2003-03-05 11:20:35 51°10.96 2°41.266 243.7 13.8 239.3 24.9
2003-03-05 11:20:40 51°10.951 2°41.239 243.7 13.8 239.5 22.2
2003-03-05 11:20:45 51°10.941 2°41.213 243.7 13.8 239.5 24.9
2003-03-05 11:20:49 51°10.933 2°41.192 243.8 13.9 239.6 25.3
2003-03-05 11:20:53 51°10.926 2°41.171 243.9 13.8 239.7 25.7
2003-03-05 11:21:00 51°10.912 2°41.134 244.2 13.8 239.8 22.2
2003-03-05 11:21:05 51°10.902 2°41.108 244 13.8 239.8 22.2
2003-03-05 11:21:08 51°10.896 2°41.092 243.8 13.8 239.7 25.4
2003-03-05 11:21:13 51°10.887 2°41.066 243.9 13.8 239.7 25.5
2003-03-05 11:21:20 51°10.873 2°41.028 244.2 13.8 239.9 23.6
2003-03-05 11:21:25 51°10.863 2°41.002 244 13.8 239.7 22.6
2003-03-05 11:21:30 51°10.854 2°40.976 244 13.8 239.8 22.6
2003-03-05 11:21:33 51°10.848 2°40.96 243.8 13.8 239.6 22.6
2003-03-05 11:21:37 51°10.84 2°40.939 243.8 13.8 239.8 22.7
2003-03-05 11:21:45 51°10.825 2°40.897 244 13.9 239.6 22.7
2003-03-05 11:21:49 51°10.817 2°40.875 244.4 13.9 240.1 24
2003-03-05 11:21:55 51°10.805 2°40.844 244.1 13.9 239.9 25.9
2003-03-05 11:22:00 51°10.795 2°40.817 244 13.8 239.8 23
2003-03-05 11:22:05 51°10.785 2°40.791 243.7 13.8 239.4 26.1
2003-03-05 11:22:09 51°10.778 2°40.77 243.7 13.9 239.3 26.5
2003-03-05 11:22:15 51°10.766 2°40.738 243.9 13.8 239.6 26.1
2003-03-05 11:22:20 51°10.756 2°40.712 244 13.8 239.9 23.3
2003-03-05 11:22:25 51°10.747 2°40.686 243.8 13.8 239.7 23.3
2003-03-05 11:22:29 51°10.739 2°40.664 243.8 13.8 239.8 26.6
2003-03-05 11:22:35 51°10.728 2°40.633 243.8 13.8 239.7 26.9
2003-03-05 11:22:39 51°10.72 2°40.612 244 13.8 239.9 23.7
2003-03-05 11:22:45 51°10.708 2°40.58 244.2 13.8 240.1 26.8
2003-03-05 11:22:49 51°10.701 2°40.559 243.7 13.8 239.7 23.7
2003-03-05 11:22:55 51°10.689 2°40.527 244 13.8 240 23.9
2003-03-05 11:23:00 51°10.68 2°40.501 244 13.8 240.1 28
2003-03-05 11:23:05 51°10.67 2°40.474 243.8 13.8 239.8 26.7
2003-03-05 11:23:09 51°10.662 2°40.453 244.2 13.8 240.1 26.3
2003-03-05 11:23:13 51°10.655 2°40.432 244.1 13.8 240.1 24.3
2003-03-05 11:23:20 51°10.641 2°40.395 243.9 13.8 240.1 27.4
2003-03-05 11:23:25 51°10.632 2°40.369 244.3 13.8 240.1 24.4
2003-03-05 11:23:29 51°10.625 2°40.348 244.4 13.8 240.3 24.5
2003-03-05 11:23:35 51°10.613 2°40.317 244.3 13.8 240.2 24.5
2003-03-05 11:23:40 51°10.604 2°40.29 244.5 13.8 240.4 28.2
2003-03-05 11:23:45 51°10.594 2°40.264 244.3 13.7 240.3 27.5
2003-03-05 11:23:49 51°10.587 2°40.243 244.1 13.8 240.1 24.7
2003-03-05 11:23:55 51°10.575 2°40.211 244.4 13.8 240.2 28.2
2003-03-05 11:24:00 51°10.566 2°40.184 244.3 13.8 240.3 28.3
2003-03-05 11:24:05 51°10.556 2°40.158 243.8 13.8 240 25
2003-03-05 11:24:09 51°10.548 2°40.137 244.3 13.8 240.1 25
2003-03-05 11:24:13 51°10.541 2°40.116 244.4 13.8 240.3 25
2003-03-05 11:24:20 51°10.527 2°40.079 244.1 13.8 240 25.2
2003-03-05 11:24:25 51°10.518 2°40.053 244.1 13.8 240 25.1
2003-03-05 11:24:29 51°10.51 2°40.032 244.4 13.8 240.2 25.3
2003-03-05 11:24:35 51°10.499 2°40 244.4 13.8 240.4 29.2
2003-03-05 11:24:40 51°10.489 2°39.974 244.2 13.8 240.1 28.4
2003-03-05 11:24:45 51°10.48 2°39.947 244.1 13.8 240.1 25.3
2003-03-05 11:24:49 51°10.472 2°39.926 244.3 13.8 240.1 25.5
2003-03-05 11:24:55 51°10.461 2°39.894 244.5 13.8 240.5 27.3
2003-03-05 11:25:00 51°10.452 2°39.868 244.3 13.8 240.1 25.6
2003-03-05 11:25:05 51°10.442 2°39.842 244.2 13.8 240.2 26.8
2003-03-05 11:25:09 51°10.434 2°39.821 244.2 13.8 240 25.6
2003-03-05 11:25:15 51°10.423 2°39.789 244.1 13.8 240 29
2003-03-05 11:25:20 51°10.413 2°39.763 243.8 13.8 239.7 25.8
2003-03-05 11:25:25 51°10.404 2°39.737 243.8 13.8 239.8 29.1
2003-03-05 11:25:30 51°10.394 2°39.71 244.2 13.8 240.1 28.8
2003-03-05 11:25:33 51°10.388 2°39.694 244.2 13.8 240.2 29.5
2003-03-05 11:25:40 51°10.375 2°39.658 244 13.7 240.1 26
2003-03-05 11:25:45 51°10.366 2°39.631 243.9 13.8 240 26
2003-03-05 11:25:50 51°10.356 2°39.605 244.2 13.8 239.9 26.1
2003-03-05 11:25:53 51°10.35 2°39.589 244.3 13.8 240.1 29.2
2003-03-05 11:26:00 51°10.337 2°39.552 244.8 13.8 240.8 31.6
2003-03-05 11:26:05 51°10.328 2°39.525 245.2 13.8 241.1 26.5
2003-03-05 11:26:09 51°10.321 2°39.504 245.4 13.8 241.2 26.5
2003-03-05 11:26:12 51°10.316 2°39.488 245.3 13.8 241.4 30.6
2003-03-05 11:26:19 51°10.303 2°39.451 245.2 13.8 241.3 29.8
2003-03-05 11:26:25 51°10.292 2°39.419 245.1 13.7 241.2 29.7
2003-03-05 11:26:29 51°10.284 2°39.398 245.1 13.6 241 22.4
2003-03-05 11:26:35 51°10.274 2°39.368 245.2 13.2 241 15.4
2003-03-05 11:26:40 51°10.265 2°39.343 245.6 12.8 241.3 15.4
2003-03-05 11:26:45 51°10.257 2°39.32 245.6 12.4 241.4 15.5
2003-03-05 11:26:49 51°10.251 2°39.301 245.5 12.2 241.4 15.5
2003-03-05 11:26:55 51°10.242 2°39.273 246 11.9 241.9 15.5
2003-03-05 11:27:00 51°10.235 2°39.251 247.1 11.7 243 15.6
2003-03-05 11:27:05 51°10.228 2°39.228 250.3 11.5 244.6 15.5
2003-03-05 11:27:09 51°10.224 2°39.21 252.7 11.1 247.6 15.6
2003-03-05 11:27:13 51°10.22 2°39.193 253.1 10.6 248.3 15.8
2003-03-05 11:27:16 51°10.217 2°39.18 252.5 10.2 248.5 15.9
2003-03-05 11:27:25 51°10.208 2°39.144 251.6 9.7 247.5 15.9
2003-03-05 11:27:29 51°10.203 2°39.129 251.1 9.5 247.2 16
2003-03-05 11:27:33 51°10.199 2°39.115 250.8 9.1 246.5 16.1
2003-03-05 11:27:40 51°10.193 2°39.09 250.7 8.8 246.5 16
2003-03-05 11:27:45 51°10.188 2°39.072 250.6 8.7 246.4 16
2003-03-05 11:27:50 51°10.183 2°39.056 251.1 8.4 246.8 16
2003-03-05 11:27:54 51°10.18 2°39.043 252.2 8.2 247.2 16
2003-03-05 11:28:00 51°10.175 2°39.024 253.4 7.7 248.7 16.1
2003-03-05 11:28:05 51°10.172 2°39.008 254.3 7.4 249.8 16.1
2003-03-05 11:28:10 51°10.168 2°38.994 255.1 7.2 249.9 16
2003-03-05 11:28:15 51°10.165 2°38.98 255.6 6.9 250.4 16
2003-03-05 11:28:20 51°10.163 2°38.966 256.1 6.7 250.9 16
2003-03-05 11:28:25 51°10.16 2°38.953 256.3 6.4 251.3 16.1
2003-03-05 11:28:29 51°10.158 2°38.943 256.6 6.2 252.1 16.1
2003-03-05 11:28:35 51°10.155 2°38.929 256.6 6 251.9 16.2
2003-03-05 11:28:40 51°10.152 2°38.917 256.2 5.8 251 16.1
2003-03-05 11:28:45 51°10.15 2°38.905 255.7 5.7 250.9 16.1
2003-03-05 11:28:49 51°10.148 2°38.896 254.9 5.5 250.8 16.2
2003-03-05 11:28:52 51°10.146 2°38.889 254.2 5.4 250.2 16.1
2003-03-05 11:29:00 51°10.142 2°38.872 253.3 5.2 248.9 16.3
2003-03-05 11:29:05 51°10.14 2°38.862 252.1 5.1 248.3 16.3
2003-03-05 11:29:07 51°10.138 2°38.858 250.8 5 247.2 16.3
2003-03-05 11:29:15 51°10.134 2°38.843 249.7 4.8 246 16.2
2003-03-05 11:29:20 51°10.131 2°38.834 248.7 4.6 245.3 16.2
2003-03-05 11:29:25 51°10.129 2°38.827 247.2 3.9 243.6 16.3
2003-03-05 11:29:29 51°10.128 2°38.822 246.2 3.4 242.3 16.3
2003-03-05 11:29:35 51°10.126 2°38.817 245.5 2.6 240.6 16.4
2003-03-05 11:29:40 51°10.125 2°38.814 244.5 2 240.6 16.3
2003-03-05 11:29:45 51°10.124 2°38.812 243.3 1.3 239.2 16.4
2003-03-05 11:29:47 51°10.124 2°38.812 242.6 0.6 236.5 16.4
2003-03-05 11:29:56 51°10.124 2°38.81 242.4 0.4 239.3 16.4
2003-03-05 11:30:01 51°10.124 2°38.81 242.8 0.3 236.2 16.4
2003-03-05 11:30:05 51°10.124 2°38.809 243.1 0.3 239.9 16.4
2003-03-05 11:30:09 51°10.123 2°38.809 243.4 0.3 237.8 16.4
2003-03-05 11:30:16 51°10.123 2°38.808 243.7 0.3 240.4 16.4
2003-03-05 11:30:21 51°10.123 2°38.808 243.9 0.3 241.2 16.4
2003-03-05 11:30:26 51°10.123 2°38.807 244.2 0.3 240.3 16.4
2003-03-05 11:30:29 51°10.122 2°38.807 244.5 0.3 240.5 16.4
2003-03-05 11:30:36 51°10.122 2°38.806 244.8 0.3 244.4 16.4
2003-03-05 11:30:41 51°10.122 2°38.805 244.9 0.3 239.8 16.4
2003-03-05 11:30:45 51°10.122 2°38.805 245.2 0.3 246.4 16.5
2003-03-05 11:30:51 51°10.121 2°38.804 245.5 0.3 247.1 16.4
2003-03-05 11:30:56 51°10.121 2°38.804 245.9 0.3 240.3 16.4
2003-03-05 11:31:01 51°10.121 2°38.803 246.2 0.3 250.9 16.4
2003-03-05 11:31:05 51°10.121 2°38.803 246.7 0.2 251.7 16.4
2003-03-05 11:31:09 51°10.121 2°38.802 247.3 0.2 250.5 16.4
2003-03-05 11:31:13 51°10.121 2°38.802 247.7 0.2 249.9 16.4
2003-03-05 11:31:21 51°10.121 2°38.802 248.2 0.2 257.4 16.4
2003-03-05 11:31:25 51°10.121 2°38.801 248.7 0.2 261.6 16.4
2003-03-05 11:31:31 51°10.121 2°38.801 249.1 0.2 260 16.4
2003-03-05 11:31:36 51°10.121 2°38.8 249.7 0.2 262.5 16.4
2003-03-05 11:31:40 51°10.121 2°38.8 250.2 0.2 269.3 16.4
2003-03-05 11:31:45 51°10.121 2°38.799 250.8 0.2 265.3 16.4
2003-03-05 11:31:51 51°10.121 2°38.799 251.1 0.2 265.5 16.4
2003-03-05 11:31:56 51°10.121 2°38.799 251.5 0.2 268.8 16.4
2003-03-05 11:32:01 51°10.121 2°38.798 251.9 0.2 277.2 16.4
2003-03-05 11:32:05 51°10.121 2°38.798 252.2 0.2 274.7 16.4
2003-03-05 11:32:11 51°10.121 2°38.798 252.4 0.2 268.3 16.5
2003-03-05 11:32:16 51°10.121 2°38.797 252.6 0.2 257 16.4
2003-03-05 11:32:21 51°10.121 2°38.797 252.8 0.2 267.6 16.5
2003-03-05 11:32:25 51°10.121 2°38.797 252.9 0.2 281.5 16.4
2003-03-05 11:32:31 51°10.121 2°38.796 252.9 0.2 280 16.5
2003-03-05 11:32:36 51°10.121 2°38.796 253 0.2 279.6 16.5
2003-03-05 11:32:49 51°10.121 2°38.794 253.2 0.2 250 16.4
2003-03-05 11:32:53 51°10.121 2°38.794 253.3 0.2 266.8 16.4
2003-03-05 11:32:59 51°10.121 2°38.794 253.3 0.2 262.7 16.4
2003-03-05 11:33:01 51°10.121 2°38.793 253.3 0.2 265.2 16.4
2003-03-05 11:33:09 51°10.121 2°38.793 253.3 0.2 272.6 16.4
2003-03-05 11:33:13 51°10.121 2°38.792 253.3 0.1 274.4 16.5
2003-03-05 11:33:17 51°10.121 2°38.792 253.3 0.1 273.5 16.4
2003-03-05 11:33:23 51°10.121 2°38.791 253.3 0.1 264 16.4
2003-03-05 11:33:29 51°10.121 2°38.791 253.3 0.1 264.9 16.4
2003-03-05 11:33:33 51°10.121 2°38.79 253.3 0.1 274.6 16.4
2003-03-05 11:33:38 51°10.121 2°38.79 253.3 0.2 260.7 16.4
2003-03-05 11:33:42 51°10.121 2°38.79 253.3 0.1 263.4 16.4
2003-03-05 11:33:48 51°10.121 2°38.79 253.2 0.1 277.1 16.4
2003-03-05 11:33:53 51°10.121 2°38.79 253.2 0.1 270.4 16.4
2003-03-05 11:33:57 51°10.121 2°38.789 253.1 0.1 245.2 16.4
2003-03-05 11:34:04 51°10.121 2°38.789 253 0.1 245.1 16.4
2003-03-05 11:34:09 51°10.121 2°38.789 253 0.1 246.5 16.4
2003-03-05 11:34:13 51°10.121 2°38.789 252.9 0.2 233.6 16.4
2003-03-05 11:34:19 51°10.121 2°38.789 252.9 0.1 243.5 16.4
2003-03-05 11:34:23 51°10.121 2°38.789 252.8 0.1 262.1 16.4
2003-03-05 11:34:29 51°10.121 2°38.789 252.8 0.1 276.7 16.4
2003-03-05 11:34:33 51°10.121 2°38.788 252.7 0.1 292.4 16.4
2003-03-05 11:34:39 51°10.121 2°38.788 252.7 0.1 306.7 16.4
2003-03-05 11:34:43 51°10.121 2°38.787 252.6 0.1 306 16.4
2003-03-05 11:34:49 51°10.121 2°38.787 252.5 0.1 297.9 16.4
2003-03-05 11:34:53 51°10.121 2°38.787 252.5 0.1 268.6 16.4
2003-03-05 11:34:59 51°10.121 2°38.787 252.5 0.1 262.3 16.5
2003-03-05 11:35:04 51°10.121 2°38.787 252.5 0.1 280.4 16.5
2003-03-05 11:35:09 51°10.121 2°38.787 252.6 0.1 312.3 16.4
2003-03-05 11:35:13 51°10.121 2°38.786 252.6 0.1 294.8 16.4
2003-03-05 11:35:17 51°10.121 2°38.786 252.5 0.1 259.7 16.4
2003-03-05 11:35:24 51°10.121 2°38.785 252.5 0.2 251.5 16.4
2003-03-05 11:35:29 51°10.12 2°38.784 252.5 0.4 254.8 16.4
2003-03-05 11:35:33 51°10.12 2°38.782 252.2 0.9 255 16.4
2003-03-05 11:35:39 51°10.118 2°38.776 251 1.5 252.8 16.4
2003-03-05 11:35:43 51°10.116 2°38.77 248.7 2.4 249.4 16.4
2003-03-05 11:35:48 51°10.113 2°38.76 246.2 4.4 244.5 16.5
2003-03-05 11:36:00 51°10.102 2°38.731 243.8 6.7 239.9 16.3
2003-03-05 11:36:05 51°10.097 2°38.716 243.7 7.3 239.7 16.4
2003-03-05 11:36:10 51°10.091 2°38.701 243.8 8 239.5 16.4
2003-03-05 11:36:14 51°10.086 2°38.687 244 8.6 239.5 16.5
2003-03-05 11:36:20 51°10.078 2°38.665 243.9 9.3 239.7 16.5
2003-03-05 11:36:25 51°10.071 2°38.646 242.9 9.8 239.2 16.4
2003-03-05 11:36:30 51°10.063 2°38.626 242.8 10.3 238.5 16.4
2003-03-05 11:36:33 51°10.058 2°38.614 243.8 10.8 239 16.5
2003-03-05 11:36:37 51°10.052 2°38.597 244.5 11.2 239.6 16.6
2003-03-05 11:36:45 51°10.039 2°38.561 243.5 11.7 239.8 16.6
2003-03-05 11:36:48 51°10.033 2°38.547 243.1 12.2 238.9 16.6
2003-03-05 11:36:52 51°10.026 2°38.528 243.3 12.5 238.8 16.6
2003-03-05 11:37:00 51°10.011 2°38.489 242.9 12.7 238.9 16.6
2003-03-05 11:37:05 51°10.002 2°38.465 242 12.8 238.4 16.5
2003-03-05 11:37:09 51°9.995 2°38.446 242.7 12.9 238.4 16.6
2003-03-05 11:37:13 51°9.987 2°38.426 245.1 13 239.8 16.5
2003-03-05 11:37:20 51°9.975 2°38.39 246 13.1 241.7 16.6
2003-03-05 11:37:25 51°9.966 2°38.365 245.4 13.1 241.5 16.6
2003-03-05 11:37:29 51°9.959 2°38.345 245 13.2 240.8 16.7
2003-03-05 11:37:33 51°9.952 2°38.325 244.8 13.2 240.6 16.7
2003-03-05 11:37:40 51°9.94 2°38.289 245.8 13.3 241 16.7
2003-03-05 11:37:45 51°9.932 2°38.263 247.4 13.2 242.2 16.7
2003-03-05 11:37:49 51°9.925 2°38.242 246.7 13.1 242.9 16.7
2003-03-05 11:37:55 51°9.914 2°38.212 244.6 13.1 242.1 16.7
2003-03-05 11:38:00 51°9.904 2°38.187 242.6 13.1 239.3 16.7
2003-03-05 11:38:05 51°9.894 2°38.163 240.9 13.2 237.4 16.7
2003-03-05 11:38:09 51°9.886 2°38.144 240.7 13.2 236.2 16.7
2003-03-05 11:38:15 51°9.874 2°38.114 240.8 13.2 236.6 16.8
2003-03-05 11:38:20 51°9.864 2°38.09 240.9 13.2 236.6 16.7
2003-03-05 11:38:25 51°9.854 2°38.065 242.4 13.3 237.6 16.7
2003-03-05 11:38:29 51°9.847 2°38.045 242.8 13.2 238.1 16.8
2003-03-05 11:38:39 51°9.827 2°37.995 242.5 13.3 238 16.7
2003-03-05 11:38:44 51°9.818 2°37.97 243.1 13.3 238.4 16.7
2003-03-05 11:38:53 51°9.801 2°37.925 242.7 13.3 238.4 16.7
2003-03-05 11:38:57 51°9.794 2°37.905 244.5 13.3 239.2 16.7
2003-03-05 11:39:03 51°9.784 2°37.874 246.1 13.2 241.2 16.7
2003-03-05 11:39:07 51°9.777 2°37.853 247.6 13.2 243 16.7
2003-03-05 11:39:13 51°9.767 2°37.823 246.6 13.1 243.1 16.7
2003-03-05 11:39:17 51°9.76 2°37.802 246 13.1 242.5 16.7
2003-03-05 11:39:23 51°9.75 2°37.771 245.9 13.1 241.9 16.7
2003-03-05 11:39:27 51°9.743 2°37.751 245.9 13.2 241.8 16.7
2003-03-05 11:39:33 51°9.733 2°37.72 246 13.2 242.1 16.8
2003-03-05 11:39:37 51°9.727 2°37.699 246.9 13.2 242.8 16.9
2003-03-05 11:39:43 51°9.717 2°37.668 247.4 13.2 243.4 16.9
2003-03-05 11:39:48 51°9.709 2°37.642 247.3 13.2 243.5 16.9
2003-03-05 11:39:53 51°9.701 2°37.616 247.9 13.2 243.8 16.9
2003-03-05 11:39:57 51°9.694 2°37.595 247.4 13.2 243.7 16.9
2003-03-05 11:40:03 51°9.684 2°37.564 246.5 13.2 242.7 16.9
2003-03-05 11:40:08 51°9.675 2°37.539 245.3 13.2 241.6 16.9
2003-03-05 11:40:12 51°9.668 2°37.519 243.8 13.2 240.5 16.8
2003-03-05 11:40:17 51°9.658 2°37.494 243.1 13.2 239.6 16.9
2003-03-05 11:40:21 51°9.651 2°37.474 243.4 13.2 239.2 16.9
2003-03-05 11:40:28 51°9.638 2°37.439 244.1 13.2 239.5 17.1
2003-03-05 11:40:33 51°9.629 2°37.414 244.1 13.1 240.2 17
2003-03-05 11:40:37 51°9.622 2°37.394 243.4 13.1 239.6 17
2003-03-05 11:40:43 51°9.611 2°37.364 243.2 13.1 239.5 17
2003-03-05 11:40:45 51°9.607 2°37.354 243 13.1 239.1 17
2003-03-05 11:40:53 51°9.592 2°37.314 243.1 13.1 239.4 17.1
2003-03-05 11:40:58 51°9.583 2°37.289 243.9 13.2 239.9 16.9
2003-03-05 11:41:03 51°9.574 2°37.264 245.2 13.2 240.3 16.9
2003-03-05 11:41:08 51°9.566 2°37.238 246.1 13.2 241.6 16.8
2003-03-05 11:41:13 51°9.558 2°37.213 245.9 13.1 242.1 17
2003-03-05 11:41:16 51°9.552 2°37.197 244.4 13.1 241 16.9
2003-03-05 11:41:23 51°9.539 2°37.162 243.8 13.2 239.8 16.8
2003-03-05 11:41:28 51°9.53 2°37.137 243.7 13.2 239.6 16.9
2003-03-05 11:41:33 51°9.521 2°37.112 244 13.1 240 17
2003-03-05 11:41:37 51°9.514 2°37.092 244.8 13.2 240.6 17.3
2003-03-05 11:41:43 51°9.503 2°37.061 245.8 13.2 241.4 17.3
2003-03-05 11:41:45 51°9.5 2°37.051 246.8 13.2 242.7 17.1
2003-03-05 11:41:53 51°9.487 2°37.009 248 13.2 243.9 17.1
2003-03-05 11:41:58 51°9.48 2°36.983 248.9 13.2 244.8 17.3
2003-03-05 11:42:01 51°9.475 2°36.967 249 13.1 245.3 17.1
2003-03-05 11:42:08 51°9.464 2°36.93 248.3 13.1 244.8 17.2
2003-03-05 11:42:13 51°9.456 2°36.904 248.2 13.2 244.5 17.2
2003-03-05 11:42:17 51°9.45 2°36.883 248.3 13.2 244.5 17.2
2003-03-05 11:42:21 51°9.444 2°36.862 249.1 13.2 245.2 17.2
2003-03-05 11:42:28 51°9.434 2°36.825 249.6 13.2 246 17.2
2003-03-05 11:42:33 51°9.427 2°36.798 250.5 13.2 246.6 17.2
2003-03-05 11:42:37 51°9.422 2°36.776 251.5 13.2 247.6 17.3
2003-03-05 11:42:43 51°9.414 2°36.744 252.2 13.1 248.1 17.3
2003-03-05 11:42:45 51°9.412 2°36.733 253.5 13.1 250 17.3
2003-03-05 11:42:53 51°9.402 2°36.69 254.4 13 250.7 17.3
2003-03-05 11:42:57 51°9.398 2°36.67 255.3 12.5 251.7 17.3
2003-03-05 11:43:01 51°9.394 2°36.65 256.2 11.8 252.3 17.3
2003-03-05 11:43:08 51°9.388 2°36.619 256.5 10.8 253.1 17.3
2003-03-05 11:43:13 51°9.384 2°36.598 256.2 10.1 252.8 17.4
2003-03-05 11:43:17 51°9.381 2°36.583 254.7 9.6 252 17.4
2003-03-05 11:43:23 51°9.376 2°36.561 253.1 8.9 250.3 17.5
2003-03-05 11:43:25 51°9.374 2°36.555 251.4 8.5 249.1 17.5
2003-03-05 11:43:33 51°9.368 2°36.529 250.8 8 247.9 17.5
2003-03-05 11:43:37 51°9.364 2°36.517 249.8 7.6 246.8 17.4
2003-03-05 11:43:40 51°9.362 2°36.508 249.3 7.2 246.3 17.5
2003-03-05 11:43:46 51°9.357 2°36.492 248.9 6.8 245.3 17.6
2003-03-05 11:43:53 51°9.352 2°36.474 248.8 6.5 245.1 17.5
2003-03-05 11:43:57 51°9.349 2°36.464 248.8 6.2 245.1 17.5
2003-03-05 11:44:01 51°9.346 2°36.455 249 5.9 245.4 17.5
2003-03-05 11:44:06 51°9.343 2°36.444 249.6 5.6 245.7 17.5
2003-03-05 11:44:13 51°9.339 2°36.429 250.1 5.4 246.4 17.5
2003-03-05 11:44:17 51°9.337 2°36.42 250.8 5.2 246.8 17.6
2003-03-05 11:44:23 51°9.334 2°36.408 251.6 5 247.6 17.6
2003-03-05 11:44:27 51°9.332 2°36.401 252.2 4.7 248.6 17.5
2003-03-05 11:44:33 51°9.329 2°36.389 252.8 4.6 249 17.5
2003-03-05 11:44:38 51°9.327 2°36.381 253.3 4.4 249.5 17.5
2003-03-05 11:44:41 51°9.326 2°36.375 253.5 4.2 249.9 17.5
2003-03-05 11:44:45 51°9.325 2°36.369 253.8 4.1 250.6 17.5
2003-03-05 11:44:53 51°9.322 2°36.356 254 4 250.8 17.6
2003-03-05 11:44:57 51°9.321 2°36.349 254.7 3.8 251.4 17.6
2003-03-05 11:45:03 51°9.319 2°36.34 255.1 3.7 252.2 17.6
2003-03-05 11:45:08 51°9.318 2°36.333 255.4 3.6 252.7 17.6
2003-03-05 11:45:19 51°9.315 2°36.317 255.6 3.4 253.4 17.6
2003-03-05 11:45:24 51°9.314 2°36.31 255.7 3.2 253.9 17.7
2003-03-05 11:45:35 51°9.311 2°36.297 255.7 3 253.5 17.5
2003-03-05 11:45:40 51°9.31 2°36.291 255.4 2.9 253.2 17.6
2003-03-05 11:45:52 51°9.307 2°36.277 254 2.7 252.5 17.6
2003-03-05 11:45:57 51°9.306 2°36.272 253.3 2.5 251.4 17.7
2003-03-05 11:46:01 51°9.305 2°36.268 252.4 2.4 250.2 17.6
2003-03-05 11:46:07 51°9.304 2°36.262 251.7 2.4 249.6 17.6
2003-03-05 11:46:12 51°9.303 2°36.258 250.8 2.3 248 17.6
2003-03-05 11:46:17 51°9.302 2°36.254 249.6 2 247.4 17.6
2003-03-05 11:46:21 51°9.301 2°36.252 248.8 1.7 246.3 17.6
2003-03-05 11:46:25 51°9.3 2°36.249 247.4 1.4 244.7 17.6
2003-03-05 11:46:30 51°9.3 2°36.247 246 1.2 243.3 17.6
2003-03-05 11:46:37 51°9.299 2°36.246 244.3 0.6 239.5 17.6
2003-03-05 11:46:41 51°9.299 2°36.247 243.1 0.1 228.7 17.6
2003-03-05 11:46:46 51°9.3 2°36.248 241.8 0.6 62.9 17.6
2003-03-05 11:46:52 51°9.301 2°36.251 240.8 1.1 57.8 17.6
2003-03-05 11:46:57 51°9.302 2°36.253 239.9 1.2 56.3 17.6
2003-03-05 11:47:01 51°9.303 2°36.255 239 1.2 54.7 17.7
2003-03-05 11:47:06 51°9.304 2°36.257 238.8 1.1 53.5 17.6
2003-03-05 11:47:12 51°9.304 2°36.259 238.7 1.1 53.7 17.6
2003-03-05 11:47:17 51°9.305 2°36.261 238.9 1.1 54 17.6
2003-03-05 11:47:21 51°9.306 2°36.262 239.2 1 54.6 17.7
2003-03-05 11:47:27 51°9.307 2°36.264 239.6 1 53.9 17.7
2003-03-05 11:47:29 51°9.307 2°36.265 240.2 1 53.3 17.7
2003-03-05 11:47:37 51°9.309 2°36.268 240.9 1 53.3 17.7